Time;durP1;ratioP1;P1;durP2;ratioP2;P2;SDS_P1;SDS_P2;PMS_P1;PMS_P2;Temp;Humidity;BMP_temperature;BMP_pressure;BME280_temperature;BME280_humidity;BME280_pressure;Samples;Min_cycle;Max_cycle;Signal;HPM_P1;HPM_P2
2023/11/24 00:01:50;;;;;;;1.63;1.52;;;6.60;99.90;;;;;;5021628;28;20030;-72
2023/11/24 00:04:16;;;;;;;1.60;1.42;;;6.70;99.90;;;;;;5020672;28;20034;-72
2023/11/24 00:06:42;;;;;;;1.77;1.05;;;6.60;99.90;;;;;;5020188;28;20036;-73
2023/11/24 00:09:08;;;;;;;1.40;1.33;;;6.60;99.90;;;;;;5019483;28;20034;-73
2023/11/24 00:11:34;;;;;;;1.40;1.30;;;6.50;99.90;;;;;;5017983;28;20456;-73
2023/11/24 00:14:00;;;;;;;1.10;1.02;;;6.40;99.90;;;;;;5020175;28;20044;-73
2023/11/24 00:16:25;;;;;;;1.63;1.52;;;6.50;99.90;;;;;;5018016;28;20030;-74
2023/11/24 00:18:51;;;;;;;1.50;1.40;;;6.50;99.90;;;;;;5019601;28;20026;-73
2023/11/24 00:21:17;;;;;;;1.30;1.20;;;6.40;99.90;;;;;;5018299;28;20319;-73
2023/11/24 00:23:43;;;;;;;1.67;1.30;;;6.50;99.90;;;;;;4999551;28;20508;-73
2023/11/24 00:26:08;;;;;;;1.38;1.10;;;6.40;99.90;;;;;;5021667;28;20021;-73
2023/11/24 00:28:36;;;;;;;1.65;1.40;;;6.50;99.90;;;;;;5018953;28;20071;-73
2023/11/24 00:31:03;;;;;;;1.55;1.30;;;6.50;99.90;;;;;;5020517;28;20102;-73
2023/11/24 00:33:29;;;;;;;1.55;1.45;;;6.50;99.90;;;;;;5020506;28;20486;-72
2023/11/24 00:35:55;;;;;;;1.70;1.60;;;6.50;99.90;;;;;;5022352;28;20025;-73
2023/11/24 00:38:22;;;;;;;1.00;1.00;;;6.50;99.90;;;;;;5018795;28;20105;-73
2023/11/24 00:40:48;;;;;;;1.40;1.30;;;6.50;99.90;;;;;;5020520;28;20025;-73
2023/11/24 00:43:13;;;;;;;3.63;1.35;;;6.50;99.90;;;;;;5019980;28;20046;-73
2023/11/24 00:45:39;;;;;;;1.63;1.52;;;6.40;99.90;;;;;;5019111;28;20508;-73
2023/11/24 00:48:06;;;;;;;1.77;1.52;;;6.40;99.90;;;;;;5003982;28;20050;-73
2023/11/24 00:50:33;;;;;;;1.67;1.58;;;6.40;99.90;;;;;;5018915;28;20087;-73
2023/11/24 00:53:01;;;;;;;2.97;1.55;;;6.40;99.90;;;;;;5019981;28;20025;-73
2023/11/24 00:55:29;;;;;;;1.50;1.40;;;6.40;99.90;;;;;;4999871;28;20037;-72
2023/11/24 00:57:54;;;;;;;1.55;1.40;;;6.40;99.90;;;;;;5000256;28;20112;-72
2023/11/24 01:00:20;;;;;;;1.58;1.30;;;6.40;1.00;;;;;;5021163;28;20489;-73
2023/11/24 01:02:46;;;;;;;3.75;1.30;;;6.40;1.00;;;;;;5024137;28;20423;-73
2023/11/24 01:05:11;;;;;;;2.47;1.52;;;6.30;1.00;;;;;;5021186;28;20030;-73
2023/11/24 01:07:37;;;;;;;1.60;1.45;;;6.30;1.00;;;;;;5020877;28;20061;-72
2023/11/24 01:10:03;;;;;;;1.50;1.40;;;6.20;1.00;;;;;;5017933;28;20098;-72
2023/11/24 01:12:29;;;;;;;1.67;1.58;;;6.30;1.00;;;;;;5020244;28;20025;-73
2023/11/24 01:14:55;;;;;;;1.50;1.40;;;6.20;1.00;;;;;;5019580;28;20041;-73
2023/11/24 01:17:21;;;;;;;1.20;1.15;;;6.20;1.00;;;;;;5008485;28;20049;-72
2023/11/24 01:19:47;;;;;;;1.40;1.30;;;6.20;1.00;;;;;;4991260;28;20479;-72
2023/11/24 01:22:12;;;;;;;1.52;1.42;;;6.20;1.00;;;;;;5010652;28;20038;-72
2023/11/24 01:24:38;;;;;;;1.35;1.27;;;6.10;1.00;;;;;;5021479;28;20116;-72
2023/11/24 01:27:04;;;;;;;2.03;1.27;;;6.20;1.00;;;;;;5019273;28;20025;-72
2023/11/24 01:29:31;;;;;;;2.42;1.40;;;6.20;1.00;;;;;;5020309;28;20386;-72
2023/11/24 01:31:57;;;;;;;1.42;1.33;;;6.20;1.00;;;;;;5021051;28;20036;-73
2023/11/24 01:34:24;;;;;;;1.67;1.10;;;6.30;1.00;;;;;;5001328;28;20266;-72
2023/11/24 01:36:50;;;;;;;5.38;1.40;;;6.30;1.00;;;;;;5019343;28;20095;-72
2023/11/24 01:39:17;;;;;;;1.60;1.48;;;6.30;1.00;;;;;;5019638;28;20459;-73
2023/11/24 01:41:43;;;;;;;1.30;1.20;;;6.40;1.00;;;;;;5017437;28;20030;-73
2023/11/24 01:44:09;;;;;;;3.72;1.52;;;6.40;99.90;;;;;;5009152;28;20037;-72
2023/11/24 01:46:35;;;;;;;1.40;1.30;;;6.50;99.90;;;;;;5018515;28;20043;-72
2023/11/24 01:49:03;;;;;;;1.45;1.35;;;6.50;99.90;;;;;;5008609;28;20391;-73
2023/11/24 01:51:31;;;;;;;0.93;0.93;;;6.60;99.90;;;;;;5020236;28;20522;-72
2023/11/24 01:53:58;;;;;;;1.40;1.30;;;6.60;99.90;;;;;;5017629;28;20064;-73
2023/11/24 01:56:24;;;;;;;1.45;1.35;;;6.70;99.90;;;;;;5008951;28;20037;-72
2023/11/24 01:58:52;;;;;;;1.60;1.50;;;6.70;99.90;;;;;;5018344;28;20025;-73
2023/11/24 02:01:24;;;;;;;1.45;1.35;;;6.60;90.50;;;;;;5002855;28;20380;-72
2023/11/24 02:03:50;;;;;;;;;;;6.60;99.90;;;;;;5022352;28;20021;-72
2023/11/24 02:06:16;;;;;;;1.85;1.08;;;6.60;17.20;;;;;;5008374;28;19958;-72
2023/11/24 02:08:43;;;;;;;1.40;1.30;;;6.60;47.00;;;;;;4999051;28;20535;-73
2023/11/24 02:11:09;;;;;;;1.70;1.60;;;6.60;1.00;;;;;;5020443;28;20033;-73
2023/11/24 02:13:34;;;;;;;1.73;1.63;;;6.60;1.00;;;;;;5017664;28;20026;-73
2023/11/24 02:16:00;;;;;;;1.42;1.33;;;6.60;99.90;;;;;;5008839;28;20376;-72
2023/11/24 02:18:26;;;;;;;1.42;1.33;;;6.60;1.00;;;;;;5019044;28;20036;-72
2023/11/24 02:20:51;;;;;;;2.15;1.40;;;6.60;99.90;;;;;;5017364;28;20034;-72
2023/11/24 02:23:17;;;;;;;1.40;1.30;;;6.60;99.90;;;;;;5020169;28;20058;-72
2023/11/24 02:25:43;;;;;;;2.83;1.45;;;6.60;99.90;;;;;;4999661;28;20037;-73
2023/11/24 02:28:09;;;;;;;3.45;1.38;;;6.70;99.90;;;;;;5018974;28;20146;-73
2023/11/24 02:30:35;;;;;;;1.30;1.20;;;6.70;99.90;;;;;;5019248;28;20024;-72
2023/11/24 02:33:01;;;;;;;1.60;1.42;;;6.70;99.90;;;;;;5020651;28;20021;-72
2023/11/24 02:35:29;;;;;;;2.90;1.60;;;6.70;99.90;;;;;;5019047;28;20104;-72
2023/11/24 02:37:55;;;;;;;1.88;1.77;;;6.60;99.90;;;;;;5018552;28;20336;-73
2023/11/24 02:40:21;;;;;;;2.90;1.67;;;6.50;99.90;;;;;;5018688;28;20045;-72
2023/11/24 02:42:47;;;;;;;1.70;1.60;;;6.50;99.90;;;;;;5007127;28;20056;-73
2023/11/24 02:45:12;;;;;;;2.25;1.95;;;6.50;99.90;;;;;;5019838;28;20033;-72
2023/11/24 02:47:38;;;;;;;7.82;2.13;;;6.50;99.90;;;;;;5016939;28;20075;-73
2023/11/24 02:50:04;;;;;;;2.42;2.22;;;6.50;99.90;;;;;;5008178;28;20471;-73
2023/11/24 02:52:30;;;;;;;4.22;2.10;;;6.50;99.90;;;;;;4997897;28;20037;-73
2023/11/24 02:54:56;;;;;;;3.30;1.73;;;6.50;99.90;;;;;;5003075;28;20034;-73
2023/11/24 02:57:23;;;;;;;2.50;1.88;;;6.60;99.90;;;;;;5010860;28;20373;-73
2023/11/24 02:59:48;;;;;;;3.13;2.42;;;6.50;1.00;;;;;;5025539;28;20030;-73
2023/11/24 03:02:14;;;;;;;2.15;2.00;;;6.40;1.00;;;;;;5023971;28;20041;-73
2023/11/24 03:04:40;;;;;;;2.20;2.10;;;6.30;1.00;;;;;;5023504;28;20033;-73
2023/11/24 03:07:09;;;;;;;5.75;3.10;;;6.30;1.00;;;;;;5019965;28;20125;-73
2023/11/24 03:09:35;;;;;;;2.50;2.30;;;6.30;1.00;;;;;;5022541;28;20543;-73
2023/11/24 03:12:02;;;;;;;2.40;2.20;;;6.20;1.00;;;;;;5021322;28;20026;-73
2023/11/24 03:14:29;;;;;;;2.58;2.38;;;6.00;1.00;;;;;;5009135;28;20037;-73
2023/11/24 03:16:58;;;;;;;2.70;2.50;;;6.00;1.00;;;;;;5023311;28;20021;-73
2023/11/24 03:19:24;;;;;;;2.70;2.60;;;5.90;1.00;;;;;;5020358;28;20079;-73
2023/11/24 03:21:49;;;;;;;2.63;2.38;;;5.90;1.00;;;;;;5021347;28;20026;-73
2023/11/24 03:24:15;;;;;;;2.30;2.10;;;5.90;99.90;;;;;;5021795;28;20485;-73
2023/11/24 03:26:41;;;;;;;1.98;1.88;;;6.00;1.00;;;;;;5019747;28;20026;-73
2023/11/24 03:29:07;;;;;;;2.20;2.10;;;6.00;1.00;;;;;;5001969;28;20029;-73
2023/11/24 03:31:33;;;;;;;2.10;2.00;;;5.90;1.00;;;;;;5023372;28;20387;-72
2023/11/24 03:34:01;;;;;;;2.42;2.30;;;5.80;1.00;;;;;;5021023;28;20066;-73
2023/11/24 03:36:26;;;;;;;3.53;2.67;;;5.60;1.00;;;;;;5021935;28;20025;-73
2023/11/24 03:38:53;;;;;;;5.53;3.03;;;5.60;1.00;;;;;;5019490;28;20036;-73
2023/11/24 03:41:19;;;;;;;3.25;2.95;;;5.70;1.00;;;;;;5022080;28;20029;-73
2023/11/24 03:43:44;;;;;;;2.88;2.67;;;5.70;1.00;;;;;;5020618;28;20053;-73
2023/11/24 03:46:11;;;;;;;4.50;2.97;;;5.60;1.00;;;;;;5020030;28;20072;-73
2023/11/24 03:48:37;;;;;;;3.42;3.13;;;5.60;1.00;;;;;;5000844;28;20146;-73
2023/11/24 03:51:04;;;;;;;3.13;2.40;;;5.60;1.00;;;;;;5023620;28;20457;-73
2023/11/24 03:53:31;;;;;;;2.90;2.60;;;5.60;1.00;;;;;;5020307;28;20052;-72
2023/11/24 03:55:56;;;;;;;3.05;2.75;;;5.70;1.00;;;;;;5020352;28;20088;-73
2023/11/24 03:58:22;;;;;;;4.97;2.85;;;5.60;1.00;;;;;;5012978;28;20017;-72
2023/11/24 04:00:49;;;;;;;5.30;2.80;;;5.60;1.00;;;;;;5022671;28;20078;-72
2023/11/24 04:03:14;;;;;;;3.40;3.10;;;5.40;1.00;;;;;;5019638;28;20127;-73
2023/11/24 04:05:40;;;;;;;5.18;3.08;;;5.20;1.00;;;;;;5022552;28;20114;-72
2023/11/24 04:08:06;;;;;;;2.90;2.65;;;5.10;1.00;;;;;;5018982;28;20018;-72
2023/11/24 04:10:31;;;;;;;2.92;2.72;;;5.10;1.00;;;;;;5021914;28;20022;-72
2023/11/24 04:12:57;;;;;;;2.65;2.45;;;5.10;1.00;;;;;;5018881;28;20104;-72
2023/11/24 04:15:23;;;;;;;2.35;2.15;;;5.30;1.00;;;;;;5021349;28;20029;-72
2023/11/24 04:17:48;;;;;;;2.47;2.28;;;5.40;1.00;;;;;;5020089;28;20037;-73
2023/11/24 04:20:14;;;;;;;2.20;1.80;;;5.30;1.00;;;;;;5019772;28;20526;-72
2023/11/24 04:22:40;;;;;;;2.08;1.98;;;5.40;1.00;;;;;;5021881;28;20034;-72
2023/11/24 04:25:08;;;;;;;1.98;1.88;;;5.40;1.00;;;;;;5018704;28;20034;-73
2023/11/24 04:27:34;;;;;;;2.45;2.22;;;5.30;1.00;;;;;;5010629;28;20033;-72
2023/11/24 04:30:01;;;;;;;3.88;1.92;;;5.30;1.00;;;;;;5020783;28;20026;-74
2023/11/24 04:32:26;;;;;;;2.17;2.08;;;5.20;1.00;;;;;;5008960;28;20451;-72
2023/11/24 04:34:52;;;;;;;2.75;1.95;;;5.10;1.00;;;;;;5023383;28;20021;-72
2023/11/24 04:37:19;;;;;;;3.33;3.05;;;4.90;1.00;;;;;;5019044;28;20037;-73
2023/11/24 04:39:46;;;;;;;2.78;2.10;;;5.00;1.00;;;;;;5020036;28;20026;-72
2023/11/24 04:42:12;;;;;;;3.20;2.30;;;5.00;1.00;;;;;;4999842;28;20060;-72
2023/11/24 04:44:37;;;;;;;2.13;1.92;;;5.00;1.00;;;;;;5000090;28;20128;-72
2023/11/24 04:47:03;;;;;;;2.30;2.10;;;5.00;1.00;;;;;;5021354;28;20026;-72
2023/11/24 04:49:29;;;;;;;3.05;2.80;;;5.00;1.00;;;;;;5019399;28;20022;-73
2023/11/24 04:51:55;;;;;;;2.60;2.40;;;4.90;1.00;;;;;;5019761;28;20029;-72
2023/11/24 04:54:21;;;;;;;2.20;1.95;;;5.00;1.00;;;;;;5021106;28;20128;-72
2023/11/24 04:56:47;;;;;;;2.40;2.20;;;4.90;1.00;;;;;;5017806;28;20116;-72
2023/11/24 04:59:13;;;;;;;2.55;2.38;;;4.80;1.00;;;;;;5010769;28;20036;-72
2023/11/24 05:01:39;;;;;;;2.00;1.88;;;4.80;1.00;;;;;;5021054;28;20030;-72
2023/11/24 05:04:05;;;;;;;3.60;2.00;;;4.80;1.00;;;;;;5019765;28;20399;-72
2023/11/24 05:06:30;;;;;;;5.07;2.00;;;4.80;1.00;;;;;;5020882;28;20022;-72
2023/11/24 05:08:56;;;;;;;2.40;2.20;;;4.80;1.00;;;;;;5018168;28;20034;-72
2023/11/24 05:11:22;;;;;;;2.35;2.15;;;4.80;1.00;;;;;;5020466;28;20593;-73
2023/11/24 05:13:49;;;;;;;1.92;1.83;;;4.80;1.00;;;;;;5020531;28;20037;-72
2023/11/24 05:16:15;;;;;;;2.03;1.92;;;4.90;1.00;;;;;;5018761;28;20025;-73
2023/11/24 05:18:41;;;;;;;2.55;2.35;;;4.80;1.00;;;;;;4999442;28;20022;-72
2023/11/24 05:21:06;;;;;;;2.75;2.42;;;4.70;1.00;;;;;;5020764;28;20026;-72
2023/11/24 05:23:33;;;;;;;2.22;2.03;;;4.70;1.00;;;;;;5018914;28;20053;-72
2023/11/24 05:26:00;;;;;;;2.47;2.28;;;4.80;1.00;;;;;;5019123;28;20490;-73
2023/11/24 05:28:26;;;;;;;2.92;2.00;;;4.80;1.00;;;;;;4999494;28;20476;-72
2023/11/24 05:30:52;;;;;;;2.83;2.08;;;4.90;1.00;;;;;;5021309;28;20025;-72
2023/11/24 05:33:18;;;;;;;2.35;2.17;;;4.90;1.00;;;;;;5000745;28;20482;-72
2023/11/24 05:35:43;;;;;;;2.40;2.20;;;4.90;1.00;;;;;;5021338;28;20109;-72
2023/11/24 05:38:09;;;;;;;2.83;2.63;;;4.90;1.00;;;;;;5018642;28;20032;-73
2023/11/24 05:40:35;;;;;;;2.88;2.38;;;5.00;1.00;;;;;;5021801;28;20017;-72
2023/11/24 05:43:01;;;;;;;2.72;2.53;;;5.00;1.00;;;;;;5017113;28;20050;-73
2023/11/24 05:45:26;;;;;;;2.45;1.98;;;5.00;1.00;;;;;;5019948;28;20032;-73
2023/11/24 05:47:52;;;;;;;2.25;2.05;;;5.00;1.00;;;;;;5019110;28;20028;-72
2023/11/24 05:50:22;;;;;;;2.28;2.08;;;5.00;1.00;;;;;;5018299;28;20026;-72
2023/11/24 05:52:48;;;;;;;2.75;2.10;;;5.00;1.00;;;;;;5020540;28;20349;-72
2023/11/24 05:55:15;;;;;;;2.20;2.00;;;5.00;1.00;;;;;;5018080;28;20373;-72
2023/11/24 05:57:41;;;;;;;2.20;2.00;;;5.00;99.90;;;;;;5008797;28;20376;-72
2023/11/24 06:00:09;;;;;;;2.25;1.77;;;5.00;99.90;;;;;;5016737;28;20037;-73
2023/11/24 06:02:35;;;;;;;3.45;2.15;;;5.10;99.90;;;;;;5020836;28;20029;-72
2023/11/24 06:05:02;;;;;;;2.60;2.40;;;5.10;99.90;;;;;;5022036;28;20063;-72
2023/11/24 06:07:28;;;;;;;2.53;2.20;;;5.10;99.90;;;;;;5018905;28;20015;-72
2023/11/24 06:09:54;;;;;;;1.90;1.80;;;5.10;99.90;;;;;;5017916;28;20022;-73
2023/11/24 06:12:20;;;;;;;2.65;2.33;;;5.10;99.90;;;;;;5020273;28;20029;-73
2023/11/24 06:14:47;;;;;;;2.03;1.92;;;5.20;99.90;;;;;;5017376;28;20026;-72
2023/11/24 06:17:12;;;;;;;2.83;2.40;;;5.30;99.90;;;;;;5009092;28;20037;-72
2023/11/24 06:19:38;;;;;;;2.42;2.33;;;5.30;99.90;;;;;;5018654;28;20030;-73
2023/11/24 06:22:04;;;;;;;2.60;2.40;;;5.20;99.90;;;;;;5017781;28;20075;-72
2023/11/24 06:24:29;;;;;;;2.47;2.33;;;5.20;99.90;;;;;;5020081;28;20026;-72
2023/11/24 06:26:56;;;;;;;3.30;2.42;;;5.20;99.90;;;;;;5017329;28;20022;-72
2023/11/24 06:29:22;;;;;;;3.28;2.50;;;5.20;99.90;;;;;;5018765;28;20021;-72
2023/11/24 06:31:47;;;;;;;1.88;1.77;;;5.30;99.90;;;;;;5024613;28;20660;-72
2023/11/24 06:34:13;;;;;;;2.65;2.13;;;5.40;99.90;;;;;;5021850;28;20037;-72
2023/11/24 06:36:39;;;;;;;2.20;1.67;;;5.40;99.90;;;;;;5023558;28;20395;-72
2023/11/24 06:39:09;;;;;;;3.72;2.85;;;5.40;99.90;;;;;;5021078;28;20022;-72
2023/11/24 06:41:36;;;;;;;4.65;2.90;;;5.40;99.90;;;;;;5011175;28;20464;-72
2023/11/24 06:44:02;;;;;;;2.25;1.98;;;5.40;99.90;;;;;;5023213;28;20116;-73
2023/11/24 06:46:27;;;;;;;5.80;2.20;;;5.50;99.90;;;;;;5020124;28;20109;-72
2023/11/24 06:48:53;;;;;;;3.85;1.90;;;5.50;99.90;;;;;;5025296;28;20014;-72
2023/11/24 06:51:19;;;;;;;2.55;1.98;;;5.40;99.90;;;;;;5021593;28;20390;-72
2023/11/24 06:53:45;;;;;;;3.08;2.00;;;5.50;99.90;;;;;;5000773;28;20021;-72
2023/11/24 06:56:11;;;;;;;2.80;1.98;;;5.50;99.90;;;;;;5019552;28;20030;-72
2023/11/24 06:58:37;;;;;;;4.28;2.38;;;5.50;99.90;;;;;;5020120;28;20026;-72
2023/11/24 07:01:04;;;;;;;4.15;2.95;;;5.40;99.90;;;;;;5011768;28;20025;-72
2023/11/24 07:03:31;;;;;;;3.53;3.13;;;5.30;1.00;;;;;;5020737;28;20057;-72
2023/11/24 07:05:57;;;;;;;4.03;3.22;;;5.30;1.00;;;;;;5008988;28;20427;-72
2023/11/24 07:08:23;;;;;;;9.20;5.90;;;5.20;1.00;;;;;;5000114;28;20507;-73
2023/11/24 07:10:48;;;;;;;9.88;6.20;;;5.00;1.00;;;;;;5021465;28;20124;-72
2023/11/24 07:13:15;;;;;;;5.78;5.22;;;5.10;1.00;;;;;;5019964;28;20399;-73
2023/11/24 07:15:41;;;;;;;7.22;5.70;;;5.10;1.00;;;;;;5018635;28;20479;-72
2023/11/24 07:18:06;;;;;;;8.10;5.10;;;5.20;1.00;;;;;;5022353;28;20102;-72
2023/11/24 07:20:33;;;;;;;5.10;4.53;;;5.10;1.00;;;;;;5024184;28;20104;-72
2023/11/24 07:22:58;;;;;;;8.52;5.20;;;5.20;1.00;;;;;;5020614;28;20426;-72
2023/11/24 07:25:24;;;;;;;12.43;4.18;;;5.20;1.00;;;;;;5021053;28;20035;-72
2023/11/24 07:27:50;;;;;;;4.60;3.47;;;5.20;1.00;;;;;;5022049;28;20450;-72
2023/11/24 07:30:16;;;;;;;9.38;3.80;;;5.30;1.00;;;;;;5019687;28;20071;-72
2023/11/24 07:32:41;;;;;;;3.22;2.78;;;5.30;1.00;;;;;;5023516;28;20404;-72
2023/11/24 07:35:09;;;;;;;3.38;2.85;;;5.40;1.00;;;;;;5024324;28;20034;-72
2023/11/24 07:37:35;;;;;;;5.18;3.53;;;5.50;1.00;;;;;;5022903;28;20067;-73
2023/11/24 07:40:06;;;;;;;7.47;3.22;;;5.60;99.90;;;;;;5020001;28;20109;-73
2023/11/24 07:42:32;;;;;;;4.88;3.30;;;5.70;99.90;;;;;;5019902;28;20452;-72
2023/11/24 07:44:58;;;;;;;4.45;3.20;;;5.70;99.90;;;;;;5011108;28;20033;-73
2023/11/24 07:47:24;;;;;;;3.08;2.67;;;5.80;99.90;;;;;;5000549;28;20159;-73
2023/11/24 07:49:49;;;;;;;3.45;3.00;;;5.90;99.90;;;;;;5017316;28;20022;-72
2023/11/24 07:52:15;;;;;;;8.02;3.80;;;6.00;99.90;;;;;;5001455;28;20116;-72
2023/11/24 07:54:41;;;;;;;4.43;4.03;;;6.00;1.00;;;;;;5021834;28;20029;-72
2023/11/24 07:57:07;;;;;;;3.95;3.50;;;6.10;1.00;;;;;;5020564;28;20438;-72
2023/11/24 07:59:33;;;;;;;10.82;5.03;;;6.10;1.00;;;;;;5020174;28;20037;-73
2023/11/24 08:01:59;;;;;;;6.95;4.45;;;6.20;99.90;;;;;;5024721;28;20041;-73
2023/11/24 08:04:25;;;;;;;15.95;5.00;;;6.30;99.90;;;;;;5020849;28;20057;-73
2023/11/24 08:06:51;;;;;;;15.57;5.55;;;6.40;99.90;;;;;;5021026;28;20480;-73
2023/11/24 08:09:17;;;;;;;7.90;4.93;;;6.40;99.90;;;;;;5020763;28;20514;-73
2023/11/24 08:11:44;;;;;;;5.07;4.47;;;6.40;99.90;;;;;;5019609;28;20061;-73
2023/11/24 08:14:10;;;;;;;5.13;4.72;;;6.40;99.90;;;;;;5022174;28;20021;-73
2023/11/24 08:16:36;;;;;;;8.38;5.15;;;6.40;99.90;;;;;;5001716;28;20026;-73
2023/11/24 08:19:02;;;;;;;10.57;4.68;;;6.40;99.90;;;;;;5020509;28;20620;-73
2023/11/24 08:21:29;;;;;;;5.10;4.50;;;6.50;99.90;;;;;;5021056;28;20106;-73
2023/11/24 08:23:55;;;;;;;8.75;4.75;;;6.50;99.90;;;;;;5018828;28;20491;-73
2023/11/24 08:26:23;;;;;;;6.80;4.38;;;6.50;99.90;;;;;;5021748;28;20074;-73
2023/11/24 08:28:49;;;;;;;29.33;6.97;;;6.60;99.90;;;;;;5020132;28;20421;-72
2023/11/24 08:31:19;;;;;;;300.63;29.48;;;6.60;99.90;;;;;;5019854;28;20069;-73
2023/11/24 08:33:46;;;;;;;101.78;13.10;;;6.70;99.90;;;;;;5022193;28;20029;-73
2023/11/24 08:36:15;;;;;;;45.75;8.00;;;6.80;99.90;;;;;;5018868;28;20198;-72
2023/11/24 08:38:41;;;;;;;48.60;8.15;;;6.80;99.90;;;;;;5019885;28;20548;-73
2023/11/24 08:41:15;;;;;;;14.45;5.60;;;6.90;99.90;;;;;;5021229;28;20112;-73
2023/11/24 08:43:41;;;;;;;15.20;5.63;;;6.90;99.90;;;;;;5019094;28;20054;-73
2023/11/24 08:46:10;;;;;;;14.75;5.97;;;6.90;99.90;;;;;;5020021;28;20025;-73
2023/11/24 08:48:36;;;;;;;13.63;6.30;;;6.90;99.90;;;;;;5021317;28;20056;-73
2023/11/24 08:51:03;;;;;;;8.25;6.15;;;6.90;1.00;;;;;;5009240;28;20106;-73
2023/11/24 08:53:34;;;;;;;6.80;5.40;;;7.00;1.00;;;;;;5020008;28;20024;-73
2023/11/24 08:56:00;;;;;;;5.75;5.35;;;7.00;99.90;;;;;;5005672;28;20395;-73
2023/11/24 08:58:26;;;;;;;6.72;5.68;;;7.00;99.90;;;;;;5018705;28;20026;-73
2023/11/24 09:00:53;;;;;;;11.30;6.25;;;7.00;99.90;;;;;;5008104;28;20032;-73
